Time;durP1;ratioP1;P1;durP2;ratioP2;P2;SDS_P1;SDS_P2;PMS_P1;PMS_P2;Temp;Humidity;BMP_temperature;BMP_pressure;BME280_temperature;BME280_humidity;BME280_pressure;Samples;Min_cycle;Max_cycle;Signal;HPM_P1;HPM_P2
2020/11/21 00:06:31;;;;;;;23.7;17.2;;;;;;;-0.28;80.80664;100406.9;;;;
2020/11/21 00:16:29;;;;;;;35.8;24.1;;;;;;;-0.43;80.94238;100416.8;;;;
2020/11/21 00:26:27;;;;;;;35.5;24.1;;;;;;;-0.45;80.97363;100422.2;;;;
2020/11/21 00:36:24;;;;;;;31.4;22.2;;;;;;;-0.46;80.55469;100428.6;;;;
2020/11/21 00:46:21;;;;;;;31.4;25.8;;;;;;;-0.39;80.6875;100440;;;;
2020/11/21 00:56:19;;;;;;;37.8;29.4;;;;;;;-0.45;80.8291;100455.9;;;;
2020/11/21 01:06:17;;;;;;;61.2;42.1;;;;;;;-0.51;81.06055;100468;;;;
2020/11/21 01:16:14;;;;;;;63.7;42.2;;;;;;;-0.57;81.45508;100466.1;;;;
2020/11/21 01:26:11;;;;;;;60.5;39.7;;;;;;;-0.76;81.26563;100454.3;;;;
2020/11/21 01:36:09;;;;;;;67.2;37.6;;;;;;;-1.06;81.1875;100458.9;;;;
2020/11/21 01:46:06;;;;;;;40.1;30.1;;;;;;;-1.29;81.6582;100460.9;;;;
2020/11/21 01:56:04;;;;;;;56.3;37;;;;;;;-1.42;84.15137;100481.1;;;;
2020/11/21 02:06:01;;;;;;;41.9;33.5;;;;;;;-1.22;83.85254;100477.7;;;;
2020/11/21 02:15:59;;;;;;;69.4;45.8;;;;;;;-1.15;85.44336;100470.6;;;;
2020/11/21 02:25:56;;;;;;;70.1;48.3;;;;;;;-0.88;85.0459;100484.1;;;;
2020/11/21 02:35:54;;;;;;;81.2;54.4;;;;;;;-0.75;85.37988;100489.6;;;;
2020/11/21 02:45:51;;;;;;;83.9;55.5;;;;;;;-0.57;85.23145;100509.3;;;;
2020/11/21 02:55:49;;;;;;;69.9;50.2;;;;;;;-0.46;85.33984;100513.3;;;;
2020/11/21 03:05:46;;;;;;;86.5;51.6;;;;;;;-0.29;84.76855;100535.9;;;;
2020/11/21 03:15:44;;;;;;;79.5;61.8;;;;;;;-0.23;84.85742;100537.8;;;;
2020/11/21 03:25:42;;;;;;;61.4;50.7;;;;;;;-0.25;84.90918;100523.9;;;;
2020/11/21 03:35:39;;;;;;;69.3;50.5;;;;;;;-0.27;85.02637;100533;;;;
2020/11/21 03:45:37;;;;;;;55;45;;;;;;;-0.29;85.32813;100537.7;;;;
2020/11/21 03:55:34;;;;;;;67.4;46.9;;;;;;;-0.38;85.32129;100536.2;;;;
2020/11/21 04:05:32;;;;;;;88.5;64.4;;;;;;;-0.27;86.06836;100544.5;;;;
2020/11/21 04:15:34;;;;;;;86.7;57;;;;;;;-0.21;85.88184;100551.6;;;;
2020/11/21 04:25:30;;;;;;;51.4;35.9;;;;;;;-0.27;85.67383;100563;;;;
2020/11/21 04:35:24;;;;;;;47.1;32.3;;;;;;;-0.3;86.28223;100574;;;;
2020/11/21 04:45:22;;;;;;;45.9;36.1;;;;;;;-0.22;86.61523;100567.8;;;;
2020/11/21 04:55:19;;;;;;;69.3;39.2;;;;;;;-0.19;86.63379;100570;;;;
2020/11/21 05:05:17;;;;;;;46.9;33.8;;;;;;;-0.08;86.47949;100574.8;;;;
2020/11/21 05:15:15;;;;;;;38.8;28.5;;;;;;;0.02;86.40234;100575.3;;;;
2020/11/21 05:25:12;;;;;;;37.9;25.6;;;;;;;0.06;85.80566;100597.8;;;;
2020/11/21 05:35:10;;;;;;;40.8;27.8;;;;;;;0.07;85.67383;100582.7;;;;
2020/11/21 05:45:08;;;;;;;33.3;25.6;;;;;;;0.07;85.71777;100593.3;;;;
2020/11/21 05:55:05;;;;;;;36.2;26.1;;;;;;;0.15;85.62598;100586;;;;
2020/11/21 06:05:03;;;;;;;41.3;27.3;;;;;;;0.21;85.65918;100595.1;;;;
2020/11/21 06:15:00;;;;;;;38.8;26.7;;;;;;;0.31;85.16406;100598.2;;;;
2020/11/21 06:24:58;;;;;;;36.6;26.3;;;;;;;0.28;84.86035;100601.2;;;;
2020/11/21 06:34:56;;;;;;;39.8;28.4;;;;;;;0.33;84.33203;100604.1;;;;
2020/11/21 06:44:53;;;;;;;49.5;30.7;;;;;;;0.29;83.90625;100614.3;;;;
2020/11/21 06:54:51;;;;;;;31.8;22.8;;;;;;;0.4;82.66211;100615.6;;;;
2020/11/21 07:04:55;;;;;;;38.8;29.7;;;;;;;0.44;82.9043;100623;;;;
2020/11/21 07:14:46;;;;;;;32.3;23;;;;;;;0.48;82.0752;100616.3;;;;
2020/11/21 07:24:44;;;;;;;32.1;20;;;;;;;0.69;80.58398;100617.3;;;;
2020/11/21 07:34:43;;;;;;;36;21.9;;;;;;;0.71;80.74121;100629.3;;;;
2020/11/21 07:44:40;;;;;;;32.6;20.2;;;;;;;0.86;80.26465;100632.7;;;;
2020/11/21 07:54:37;;;;;;;31.8;17.8;;;;;;;0.72;80.63281;100640.8;;;;
2020/11/21 08:04:37;;;;;;;22.5;14.7;;;;;;;0.91;78.35645;100654.1;;;;
2020/11/21 08:14:33;;;;;;;24.1;17.3;;;;;;;1.03;76.47754;100674.9;;;;
2020/11/21 08:24:30;;;;;;;18.8;12.4;;;;;;;0.86;70.80859;100661.9;;;;
2020/11/21 08:34:28;;;;;;;26.2;14.6;;;;;;;0.99;72.52051;100666.5;;;;
2020/11/21 08:44:28;;;;;;;18.1;13.6;;;;;;;0.91;74.49512;100672.7;;;;
2020/11/21 08:54:24;;;;;;;23.6;15.5;;;;;;;1.04;74.40527;100676.5;;;;
2020/11/21 09:04:21;;;;;;;26.5;18.4;;;;;;;0.92;74.30762;100673.6;;;;
2020/11/21 09:14:19;;;;;;;21.7;16.5;;;;;;;0.83;73.5752;100678.2;;;;
2020/11/21 09:24:17;;;;;;;19.5;12;;;;;;;1;72.9082;100687.5;;;;
2020/11/21 09:34:15;;;;;;;17.9;12.3;;;;;;;1.02;70.70117;100671.4;;;;
2020/11/21 09:44:12;;;;;;;14.8;8.6;;;;;;;1.35;68.79688;100667.1;;;;
2020/11/21 09:54:10;;;;;;;21.7;9.9;;;;;;;1.42;69.48438;100657.3;;;;
2020/11/21 10:04:08;;;;;;;13.7;8.8;;;;;;;1.9;67.91113;100650.1;;;;
2020/11/21 10:14:06;;;;;;;15.4;11.7;;;;;;;2.33;66.125;100655.1;;;;
2020/11/21 10:24:03;;;;;;;15.3;11.2;;;;;;;2.53;66.29004;100654.1;;;;
2020/11/21 10:34:01;;;;;;;18.1;10;;;;;;;2.71;64.52539;100639.4;;;;
2020/11/21 10:43:59;;;;;;;17.8;11.3;;;;;;;3.04;63.13086;100619.6;;;;
2020/11/21 10:53:57;;;;;;;22.5;14.5;;;;;;;3.47;63.42871;100606.6;;;;
2020/11/21 11:03:55;;;;;;;15.5;12.9;;;;;;;3.41;63.20703;100587.9;;;;
2020/11/21 11:13:53;;;;;;;25.6;14.4;;;;;;;3.08;62.39063;100577.4;;;;
2020/11/21 11:23:51;;;;;;;16.8;12.6;;;;;;;3.2;61.36035;100591.7;;;;
2020/11/21 11:33:53;;;;;;;17.4;13.2;;;;;;;3.34;62.7627;100582.6;;;;
2020/11/21 11:43:47;;;;;;;13.2;9.8;;;;;;;3.39;61.28809;100593.5;;;;
2020/11/21 11:53:45;;;;;;;26.2;11.7;;;;;;;3.53;61.05176;100576.4;;;;
2020/11/21 12:03:43;;;;;;;25.7;15.3;;;;;;;3.15;63.00098;100586.2;;;;
2020/11/21 12:13:41;;;;;;;22.2;13.7;;;;;;;3.41;61.40234;100566.6;;;;
2020/11/21 12:23:39;;;;;;;18.7;10.4;;;;;;;3.53;60.2373;100563.1;;;;
2020/11/21 12:33:37;;;;;;;13.1;7.6;;;;;;;3.39;60.27246;100555.4;;;;
2020/11/21 12:43:35;;;;;;;20.1;9.5;;;;;;;3.54;60.1377;100531.9;;;;
2020/11/21 12:53:33;;;;;;;14.2;8.9;;;;;;;3.52;59.88965;100540.1;;;;
2020/11/21 13:03:31;;;;;;;11.7;8.5;;;;;;;3.45;59.61133;100517.2;;;;
2020/11/21 13:13:28;;;;;;;10.4;8.3;;;;;;;3.32;60.26367;100518.1;;;;
2020/11/21 13:23:32;;;;;;;20;9.3;;;;;;;3.22;59.40137;100503.6;;;;
2020/11/21 13:33:24;;;;;;;16;8.2;;;;;;;2.96;59.24414;100462.7;;;;
2020/11/21 13:43:22;;;;;;;12.9;8.5;;;;;;;2.73;60.29102;100462.4;;;;
2020/11/21 14:03:18;;;;;;;16.2;11.2;;;;;;;2.16;61.88965;100471.1;;;;
2020/11/21 14:13:16;;;;;;;45.8;29.4;;;;;;;1.7;63.59863;100465;;;;
2020/11/21 14:23:14;;;;;;;23.6;15.7;;;;;;;1.1;64.97168;100460.7;;;;
2020/11/21 14:33:12;;;;;;;21.3;11.5;;;;;;;0.55;66.68945;100443.1;;;;
2020/11/21 14:43:09;;;;;;;17.4;10.5;;;;;;;-0.01;68.48047;100433.4;;;;
2020/11/21 14:53:07;;;;;;;18.7;10.9;;;;;;;-0.42;70.1543;100423.7;;;;
2020/11/21 15:03:04;;;;;;;37.6;27.7;;;;;;;-0.8;71.40137;100423.2;;;;
2020/11/21 15:13:04;;;;;;;44.4;26.2;;;;;;;-1.05;74.72461;100418.2;;;;
2020/11/21 15:22:59;;;;;;;37.4;27.3;;;;;;;-1.32;74.08398;100403;;;;
2020/11/21 15:32:57;;;;;;;37.6;24.4;;;;;;;-1.53;75.52832;100377.4;;;;
2020/11/21 15:42:54;;;;;;;34.4;21.9;;;;;;;-1.71;76.99902;100378.8;;;;
2020/11/21 15:52:51;;;;;;;41.4;29.4;;;;;;;-1.92;78.28516;100369;;;;
2020/11/21 16:02:51;;;;;;;307.5;219.2;;;;;;;-2.11;79.00781;100380.9;;;;
2020/11/21 16:12:46;;;;;;;95.2;58.1;;;;;;;-2.22;78.74414;100370;;;;
2020/11/21 16:22:43;;;;;;;57.7;39.4;;;;;;;-2.3;78.9707;100376.2;;;;
2020/11/21 16:32:41;;;;;;;73.9;50;;;;;;;-2.41;79.15723;100371.3;;;;
2020/11/21 16:42:38;;;;;;;105.9;67.5;;;;;;;-2.54;79.64648;100365.8;;;;
2020/11/21 16:52:35;;;;;;;95.7;64.7;;;;;;;-2.71;80.25;100359.1;;;;
2020/11/21 17:02:32;;;;;;;66.8;42.3;;;;;;;-2.85;81.66406;100338.8;;;;
2020/11/21 17:12:29;;;;;;;89.9;53.8;;;;;;;-2.85;81.20508;100336.1;;;;
2020/11/21 17:22:27;;;;;;;90.9;53.6;;;;;;;-3.03;80.95313;100333.8;;;;
2020/11/21 17:32:24;;;;;;;61.2;36.5;;;;;;;-3.2;80.96387;100322.5;;;;
2020/11/21 17:42:21;;;;;;;50.1;30.2;;;;;;;-3.31;81.10547;100328.2;;;;
2020/11/21 17:52:18;;;;;;;57.9;42.6;;;;;;;-3.51;81.62207;100331.5;;;;
2020/11/21 18:02:15;;;;;;;118.1;79.7;;;;;;;-3.63;83.18066;100318.7;;;;
2020/11/21 18:12:12;;;;;;;107;74.8;;;;;;;-3.75;83.97363;100309.5;;;;
2020/11/21 18:22:09;;;;;;;101.4;71.7;;;;;;;-3.85;84.08398;100300.3;;;;
2020/11/21 18:32:15;;;;;;;85.2;60.4;;;;;;;-4;83.60938;100300.1;;;;
2020/11/21 18:42:03;;;;;;;78.6;50.8;;;;;;;-4.15;83.41699;100289.5;;;;
2020/11/21 18:52:00;;;;;;;79.2;50.5;;;;;;;-4.42;84.03613;100249.6;;;;
2020/11/21 19:01:57;;;;;;;77.7;49.6;;;;;;;-4.37;84.53613;100287.6;;;;
2020/11/21 19:11:54;;;;;;;74.9;48.8;;;;;;;-4.43;84.16309;100271.7;;;;
2020/11/21 19:21:51;;;;;;;94.5;60.1;;;;;;;-4.45;84.21387;100250;;;;
2020/11/21 19:31:51;;;;;;;70.5;42.6;;;;;;;-4.01;85.61719;100237.1;;;;
2020/11/21 19:41:45;;;;;;;60.2;34.5;;;;;;;-3.36;84.14941;100230.4;;;;
2020/11/21 19:51:42;;;;;;;50.5;30.6;;;;;;;-2.57;81.80469;100221.1;;;;
2020/11/21 20:01:40;;;;;;;104.6;72.9;;;;;;;-2.45;81.06348;100243.3;;;;
2020/11/21 20:11:37;;;;;;;151.9;92.8;;;;;;;-2.53;81.51855;100240.8;;;;
2020/11/21 20:21:34;;;;;;;135.7;92.1;;;;;;;-2.46;80.91797;100230.3;;;;
2020/11/21 20:31:31;;;;;;;123.8;88.1;;;;;;;-2.44;80.62793;100234.4;;;;
2020/11/21 20:41:29;;;;;;;121.2;85.1;;;;;;;-2.41;80.79785;100223.5;;;;
2020/11/21 20:51:26;;;;;;;128.3;82.1;;;;;;;-2.45;81.67578;100211.7;;;;
2020/11/21 21:01:23;;;;;;;76.9;61.9;;;;;;;-2.29;80.33984;100193;;;;
2020/11/21 21:11:21;;;;;;;80.6;62.9;;;;;;;-2.32;80.05078;100177.5;;;;
2020/11/21 21:21:18;;;;;;;95.4;69.5;;;;;;;-2.34;80.39551;100162.8;;;;
2020/11/21 21:31:15;;;;;;;60.8;36.2;;;;;;;-2.43;79.78613;100161.3;;;;
2020/11/21 21:41:13;;;;;;;62.2;38;;;;;;;-2.52;79.67285;100152.7;;;;
2020/11/21 21:51:10;;;;;;;52.3;38.4;;;;;;;-2.53;78.93848;100140.5;;;;
2020/11/21 22:01:07;;;;;;;52.8;35.2;;;;;;;-2.51;79.79492;100122.7;;;;
2020/11/21 22:11:04;;;;;;;72.1;45.1;;;;;;;-2.59;79.81445;100091.9;;;;
2020/11/21 22:21:02;;;;;;;38.6;29.6;;;;;;;-2.7;78.02051;100091.6;;;;
2020/11/21 22:30:59;;;;;;;49.7;31.2;;;;;;;-2.91;77.45801;100089.7;;;;
2020/11/21 22:40:56;;;;;;;49.5;35.2;;;;;;;-3.11;77.17188;100086.8;;;;
2020/11/21 22:50:53;;;;;;;49.6;31;;;;;;;-3.35;76.91895;100068.6;;;;
2020/11/21 23:00:51;;;;;;;46.1;30.4;;;;;;;-3.45;76.77051;100049.6;;;;
2020/11/21 23:10:48;;;;;;;46.5;30.7;;;;;;;-3.51;76.70313;100046.9;;;;
2020/11/21 23:20:45;;;;;;;48;31.6;;;;;;;-3.46;76.70313;100026.9;;;;
2020/11/21 23:30:42;;;;;;;41.3;28.5;;;;;;;-3.23;74.94141;100016.3;;;;
2020/11/21 23:40:39;;;;;;;45.5;29.6;;;;;;;-3.29;75.45605;100006.4;;;;
2020/11/21 23:50:37;;;;;;;45.9;27.5;;;;;;;-3.22;75.46875;100000.3;;;;
